sensor_id;sensor_type;location;lat;lon;timestamp;pressure;altitude;pressure_sealevel;temperature;humidity
32131;BME280;18639;50.716;7.086;2023-07-08T00:01:09;100449.25;;;18.40;94.05
32131;BME280;18639;50.716;7.086;2023-07-08T00:03:36;100449.56;;;18.37;93.50
32131;BME280;18639;50.716;7.086;2023-07-08T00:06:01;100445.44;;;18.35;93.42
32131;BME280;18639;50.716;7.086;2023-07-08T00:08:27;100452.84;;;18.39;92.64
32131;BME280;18639;50.716;7.086;2023-07-08T00:10:52;100453.66;;;18.40;92.91
32131;BME280;18639;50.716;7.086;2023-07-08T00:13:17;100436.00;;;18.24;92.59
32131;BME280;18639;50.716;7.086;2023-07-08T00:15:44;100455.91;;;18.35;92.58
32131;BME280;18639;50.716;7.086;2023-07-08T00:18:16;100444.38;;;18.28;92.49
32131;BME280;18639;50.716;7.086;2023-07-08T00:20:45;100469.09;;;18.43;92.49
32131;BME280;18639;50.716;7.086;2023-07-08T00:23:11;100452.22;;;18.28;92.41
32131;BME280;18639;50.716;7.086;2023-07-08T00:25:38;100457.81;;;18.33;92.75
32131;BME280;18639;50.716;7.086;2023-07-08T00:28:12;100458.38;;;18.36;92.22
32131;BME280;18639;50.716;7.086;2023-07-08T00:30:38;100454.16;;;18.26;92.91
32131;BME280;18639;50.716;7.086;2023-07-08T00:33:05;100445.56;;;18.16;93.34
32131;BME280;18639;50.716;7.086;2023-07-08T00:35:37;100462.69;;;18.28;93.44
32131;BME280;18639;50.716;7.086;2023-07-08T00:38:20;100462.28;;;18.23;93.28
32131;BME280;18639;50.716;7.086;2023-07-08T00:40:51;100440.34;;;18.06;93.47
32131;BME280;18639;50.716;7.086;2023-07-08T00:43:17;100441.41;;;18.13;94.38
32131;BME280;18639;50.716;7.086;2023-07-08T00:45:48;100455.72;;;18.19;94.47
32131;BME280;18639;50.716;7.086;2023-07-08T00:48:25;100425.78;;;18.03;94.42
32131;BME280;18639;50.716;7.086;2023-07-08T00:50:54;100429.66;;;17.99;94.48
32131;BME280;18639;50.716;7.086;2023-07-08T00:53:30;100454.50;;;18.13;94.80
32131;BME280;18639;50.716;7.086;2023-07-08T00:56:17;100447.09;;;18.08;95.16
32131;BME280;18639;50.716;7.086;2023-07-08T00:58:47;100452.19;;;18.10;94.98
32131;BME280;18639;50.716;7.086;2023-07-08T01:01:14;100429.41;;;17.93;94.83
32131;BME280;18639;50.716;7.086;2023-07-08T01:03:54;100430.31;;;18.01;95.16
32131;BME280;18639;50.716;7.086;2023-07-08T01:06:22;100426.88;;;18.01;94.65
32131;BME280;18639;50.716;7.086;2023-07-08T01:08:56;100378.31;;;17.71;94.70
32131;BME280;18639;50.716;7.086;2023-07-08T01:11:22;100430.75;;;17.97;94.94
32131;BME280;18639;50.716;7.086;2023-07-08T01:13:48;100419.19;;;17.99;95.16
32131;BME280;18639;50.716;7.086;2023-07-08T01:16:15;100435.41;;;18.03;95.48
32131;BME280;18639;50.716;7.086;2023-07-08T01:18:40;100370.75;;;17.58;96.01
32131;BME280;18639;50.716;7.086;2023-07-08T01:23:54;100425.25;;;17.90;95.91
32131;BME280;18639;50.716;7.086;2023-07-08T01:26:23;100434.31;;;17.96;95.76
32131;BME280;18639;50.716;7.086;2023-07-08T01:28:50;100413.38;;;17.78;96.44
32131;BME280;18639;50.716;7.086;2023-07-08T01:31:16;100397.56;;;17.70;96.68
32131;BME280;18639;50.716;7.086;2023-07-08T01:33:41;100358.19;;;17.35;96.41
32131;BME280;18639;50.716;7.086;2023-07-08T01:36:10;100417.91;;;17.76;95.03
32131;BME280;18639;50.716;7.086;2023-07-08T01:38:36;100387.97;;;17.61;95.06
32131;BME280;18639;50.716;7.086;2023-07-08T01:41:02;100375.03;;;17.50;94.42
32131;BME280;18639;50.716;7.086;2023-07-08T01:43:27;100419.81;;;17.74;94.54
32131;BME280;18639;50.716;7.086;2023-07-08T01:45:53;100406.53;;;17.67;94.43
32131;BME280;18639;50.716;7.086;2023-07-08T01:48:22;100425.22;;;17.73;94.78
32131;BME280;18639;50.716;7.086;2023-07-08T01:51:06;100416.53;;;17.72;96.01
32131;BME280;18639;50.716;7.086;2023-07-08T01:53:35;100414.91;;;17.71;96.20
32131;BME280;18639;50.716;7.086;2023-07-08T01:56:00;100412.84;;;17.65;97.65
32131;BME280;18639;50.716;7.086;2023-07-08T01:58:26;100403.09;;;17.57;98.19
32131;BME280;18639;50.716;7.086;2023-07-08T02:00:51;100406.41;;;17.50;98.76
32131;BME280;18639;50.716;7.086;2023-07-08T02:03:17;100417.13;;;17.56;99.19
32131;BME280;18639;50.716;7.086;2023-07-08T02:05:42;100406.69;;;17.47;100.00
32131;BME280;18639;50.716;7.086;2023-07-08T02:08:08;100403.00;;;17.40;100.00
32131;BME280;18639;50.716;7.086;2023-07-08T02:10:33;100394.75;;;17.35;100.00
32131;BME280;18639;50.716;7.086;2023-07-08T02:12:58;100387.50;;;17.19;100.00
32131;BME280;18639;50.716;7.086;2023-07-08T02:15:25;100376.63;;;17.23;100.00
32131;BME280;18639;50.716;7.086;2023-07-08T02:17:50;100379.81;;;17.17;100.00
32131;BME280;18639;50.716;7.086;2023-07-08T02:20:16;100395.56;;;17.25;99.97
32131;BME280;18639;50.716;7.086;2023-07-08T02:22:41;100397.25;;;17.17;99.85
32131;BME280;18639;50.716;7.086;2023-07-08T02:25:07;100350.13;;;16.99;100.00
32131;BME280;18639;50.716;7.086;2023-07-08T02:27:34;100379.25;;;17.04;99.89
32131;BME280;18639;50.716;7.086;2023-07-08T02:29:59;100409.47;;;17.26;99.43
32131;BME280;18639;50.716;7.086;2023-07-08T02:32:24;100388.72;;;17.15;99.81
32131;BME280;18639;50.716;7.086;2023-07-08T02:34:50;100412.50;;;17.21;100.00
32131;BME280;18639;50.716;7.086;2023-07-08T02:37:17;100357.56;;;16.94;100.00
32131;BME280;18639;50.716;7.086;2023-07-08T02:39:42;100391.22;;;17.07;100.00
32131;BME280;18639;50.716;7.086;2023-07-08T02:42:08;100382.03;;;17.03;100.00
32131;BME280;18639;50.716;7.086;2023-07-08T02:44:33;100352.47;;;16.83;100.00
32131;BME280;18639;50.716;7.086;2023-07-08T02:46:59;100370.19;;;16.89;100.00
32131;BME280;18639;50.716;7.086;2023-07-08T02:49:24;100367.19;;;16.84;100.00
32131;BME280;18639;50.716;7.086;2023-07-08T02:51:49;100382.03;;;16.93;100.00
32131;BME280;18639;50.716;7.086;2023-07-08T02:54:15;100369.38;;;16.79;100.00
32131;BME280;18639;50.716;7.086;2023-07-08T02:56:40;100383.13;;;16.81;100.00
32131;BME280;18639;50.716;7.086;2023-07-08T02:59:05;100381.78;;;16.77;100.00
32131;BME280;18639;50.716;7.086;2023-07-08T03:01:31;100390.41;;;16.77;100.00
32131;BME280;18639;50.716;7.086;2023-07-08T03:03:59;100390.56;;;16.76;100.00
32131;BME280;18639;50.716;7.086;2023-07-08T03:06:25;100415.81;;;16.85;100.00
32131;BME280;18639;50.716;7.086;2023-07-08T03:08:50;100408.53;;;16.79;100.00
32131;BME280;18639;50.716;7.086;2023-07-08T03:11:16;100412.94;;;16.78;100.00
32131;BME280;18639;50.716;7.086;2023-07-08T03:13:41;100404.56;;;16.75;100.00
32131;BME280;18639;50.716;7.086;2023-07-08T03:16:07;100411.69;;;16.73;100.00
32131;BME280;18639;50.716;7.086;2023-07-08T03:18:37;100421.47;;;16.80;100.00
32131;BME280;18639;50.716;7.086;2023-07-08T03:21:11;100385.28;;;16.57;100.00
32131;BME280;18639;50.716;7.086;2023-07-08T03:23:37;100378.00;;;16.41;100.00
32131;BME280;18639;50.716;7.086;2023-07-08T03:26:03;100328.13;;;16.15;100.00
32131;BME280;18639;50.716;7.086;2023-07-08T03:28:28;100347.09;;;16.36;100.00
32131;BME280;18639;50.716;7.086;2023-07-08T03:30:53;100416.38;;;16.79;100.00
32131;BME280;18639;50.716;7.086;2023-07-08T03:33:19;100417.47;;;16.76;100.00
32131;BME280;18639;50.716;7.086;2023-07-08T03:35:45;100421.06;;;16.75;100.00
32131;BME280;18639;50.716;7.086;2023-07-08T03:38:10;100426.41;;;16.74;100.00
32131;BME280;18639;50.716;7.086;2023-07-08T03:40:35;100425.03;;;16.70;100.00
32131;BME280;18639;50.716;7.086;2023-07-08T03:43:01;100430.50;;;16.67;100.00
32131;BME280;18639;50.716;7.086;2023-07-08T03:45:26;100391.03;;;16.41;100.00
32131;BME280;18639;50.716;7.086;2023-07-08T03:47:51;100441.22;;;16.73;100.00
32131;BME280;18639;50.716;7.086;2023-07-08T03:50:19;100436.16;;;16.72;100.00
32131;BME280;18639;50.716;7.086;2023-07-08T03:52:46;100432.56;;;16.73;100.00
32131;BME280;18639;50.716;7.086;2023-07-08T03:55:11;100436.97;;;16.72;100.00
32131;BME280;18639;50.716;7.086;2023-07-08T03:57:37;100419.66;;;16.62;100.00
32131;BME280;18639;50.716;7.086;2023-07-08T04:00:03;100418.03;;;16.61;100.00
32131;BME280;18639;50.716;7.086;2023-07-08T04:02:28;100433.69;;;16.70;100.00
32131;BME280;18639;50.716;7.086;2023-07-08T04:04:54;100403.41;;;16.58;100.00
32131;BME280;18639;50.716;7.086;2023-07-08T04:07:19;100435.75;;;16.76;100.00
32131;BME280;18639;50.716;7.086;2023-07-08T04:09:44;100392.16;;;16.48;100.00
32131;BME280;18639;50.716;7.086;2023-07-08T04:12:15;100442.75;;;16.76;100.00
32131;BME280;18639;50.716;7.086;2023-07-08T04:14:40;100413.03;;;16.58;100.00
32131;BME280;18639;50.716;7.086;2023-07-08T04:17:08;100444.53;;;16.75;100.00
32131;BME280;18639;50.716;7.086;2023-07-08T04:19:34;100428.88;;;16.66;100.00
32131;BME280;18639;50.716;7.086;2023-07-08T04:22:01;100373.72;;;16.40;100.00
32131;BME280;18639;50.716;7.086;2023-07-08T04:24:26;100440.56;;;16.81;100.00
32131;BME280;18639;50.716;7.086;2023-07-08T04:26:52;100395.31;;;16.52;100.00
32131;BME280;18639;50.716;7.086;2023-07-08T04:29:19;100397.97;;;16.61;100.00
32131;BME280;18639;50.716;7.086;2023-07-08T04:31:45;100402.38;;;16.61;100.00
32131;BME280;18639;50.716;7.086;2023-07-08T04:34:11;100407.31;;;16.64;100.00
32131;BME280;18639;50.716;7.086;2023-07-08T04:36:37;100429.16;;;16.82;100.00
32131;BME280;18639;50.716;7.086;2023-07-08T04:39:04;100433.16;;;16.86;100.00
32131;BME280;18639;50.716;7.086;2023-07-08T04:41:29;100428.34;;;16.91;100.00
32131;BME280;18639;50.716;7.086;2023-07-08T04:43:55;100429.28;;;16.90;100.00
32131;BME280;18639;50.716;7.086;2023-07-08T04:46:44;100438.09;;;16.99;100.00
32131;BME280;18639;50.716;7.086;2023-07-08T04:49:10;100432.31;;;16.95;100.00
32131;BME280;18639;50.716;7.086;2023-07-08T04:51:37;100400.44;;;16.82;100.00
32131;BME280;18639;50.716;7.086;2023-07-08T04:54:03;100433.97;;;16.96;100.00
32131;BME280;18639;50.716;7.086;2023-07-08T04:56:43;100438.09;;;17.08;100.00
32131;BME280;18639;50.716;7.086;2023-07-08T04:59:14;100424.88;;;17.00;100.00
32131;BME280;18639;50.716;7.086;2023-07-08T05:01:40;100429.84;;;17.13;100.00
32131;BME280;18639;50.716;7.086;2023-07-08T05:04:06;100439.88;;;17.17;100.00
32131;BME280;18639;50.716;7.086;2023-07-08T05:06:33;100439.03;;;17.26;100.00
32131;BME280;18639;50.716;7.086;2023-07-08T05:08:59;100444.66;;;17.32;100.00
32131;BME280;18639;50.716;7.086;2023-07-08T05:11:25;100412.50;;;17.21;100.00
32131;BME280;18639;50.716;7.086;2023-07-08T05:13:50;100420.47;;;17.30;100.00
32131;BME280;18639;50.716;7.086;2023-07-08T05:16:16;100436.22;;;17.47;100.00
32131;BME280;18639;50.716;7.086;2023-07-08T05:18:42;100431.00;;;17.57;100.00
32131;BME280;18639;50.716;7.086;2023-07-08T05:21:09;100378.13;;;17.26;100.00
32131;BME280;18639;50.716;7.086;2023-07-08T05:23:35;100435.81;;;17.71;100.00
32131;BME280;18639;50.716;7.086;2023-07-08T05:26:01;100433.06;;;17.73;100.00
32131;BME280;18639;50.716;7.086;2023-07-08T05:28:27;100445.53;;;17.88;100.00
32131;BME280;18639;50.716;7.086;2023-07-08T05:30:53;100440.78;;;18.01;100.00
32131;BME280;18639;50.716;7.086;2023-07-08T05:33:27;100437.59;;;18.07;100.00
32131;BME280;18639;50.716;7.086;2023-07-08T05:35:53;100417.34;;;18.09;100.00
32131;BME280;18639;50.716;7.086;2023-07-08T05:38:19;100446.41;;;18.34;100.00
32131;BME280;18639;50.716;7.086;2023-07-08T05:40:54;100429.03;;;18.33;100.00
32131;BME280;18639;50.716;7.086;2023-07-08T05:43:19;100445.63;;;18.51;100.00
32131;BME280;18639;50.716;7.086;2023-07-08T05:45:45;100410.97;;;18.39;100.00
32131;BME280;18639;50.716;7.086;2023-07-08T05:48:10;100402.91;;;18.50;100.00
32131;BME280;18639;50.716;7.086;2023-07-08T05:50:36;100388.13;;;18.59;100.00
32131;BME280;18639;50.716;7.086;2023-07-08T05:53:01;100408.25;;;18.76;100.00
32131;BME280;18639;50.716;7.086;2023-07-08T05:55:27;100395.25;;;18.84;100.00
32131;BME280;18639;50.716;7.086;2023-07-08T05:57:53;100415.94;;;19.13;100.00
32131;BME280;18639;50.716;7.086;2023-07-08T06:00:18;100352.69;;;18.82;100.00
32131;BME280;18639;50.716;7.086;2023-07-08T06:02:43;100399.59;;;19.19;100.00
32131;BME280;18639;50.716;7.086;2023-07-08T06:05:09;100385.53;;;19.20;100.00
32131;BME280;18639;50.716;7.086;2023-07-08T06:07:34;100404.00;;;19.37;100.00
32131;BME280;18639;50.716;7.086;2023-07-08T06:09:59;100430.59;;;19.67;100.00
32131;BME280;18639;50.716;7.086;2023-07-08T06:12:25;100413.53;;;19.63;100.00
32131;BME280;18639;50.716;7.086;2023-07-08T06:14:51;100425.63;;;19.90;98.55
32131;BME280;18639;50.716;7.086;2023-07-08T06:17:17;100403.81;;;19.90;99.60
32131;BME280;18639;50.716;7.086;2023-07-08T06:19:43;100422.28;;;20.14;97.64
32131;BME280;18639;50.716;7.086;2023-07-08T06:22:08;100429.16;;;20.15;97.31
32131;BME280;18639;50.716;7.086;2023-07-08T06:24:34;100437.47;;;20.36;98.21
32131;BME280;18639;50.716;7.086;2023-07-08T06:26:59;100393.94;;;20.26;100.00
32131;BME280;18639;50.716;7.086;2023-07-08T06:29:25;100428.38;;;20.65;99.75
32131;BME280;18639;50.716;7.086;2023-07-08T06:31:50;100432.00;;;20.80;100.00
32131;BME280;18639;50.716;7.086;2023-07-08T06:34:17;100421.34;;;20.97;93.15
32131;BME280;18639;50.716;7.086;2023-07-08T06:36:43;100418.91;;;21.20;82.15
32131;BME280;18639;50.716;7.086;2023-07-08T06:39:08;100411.00;;;21.36;78.02
32131;BME280;18639;50.716;7.086;2023-07-08T06:41:36;100415.53;;;21.59;77.97
32131;BME280;18639;50.716;7.086;2023-07-08T06:44:01;100421.38;;;21.85;77.11
32131;BME280;18639;50.716;7.086;2023-07-08T06:46:26;100397.53;;;21.95;72.41
32131;BME280;18639;50.716;7.086;2023-07-08T06:48:52;100399.16;;;22.04;75.40
32131;BME280;18639;50.716;7.086;2023-07-08T06:51:18;100422.97;;;22.41;74.52
32131;BME280;18639;50.716;7.086;2023-07-08T06:53:44;100429.13;;;22.56;72.38
32131;BME280;18639;50.716;7.086;2023-07-08T06:56:09;100391.78;;;22.53;69.66
32131;BME280;18639;50.716;7.086;2023-07-08T06:58:34;100408.81;;;22.73;69.31
32131;BME280;18639;50.716;7.086;2023-07-08T07:01:00;100424.94;;;22.93;71.14
32131;BME280;18639;50.716;7.086;2023-07-08T07:03:25;100425.34;;;23.04;73.58
32131;BME280;18639;50.716;7.086;2023-07-08T07:05:50;100408.38;;;23.07;68.25
32131;BME280;18639;50.716;7.086;2023-07-08T07:08:16;100434.84;;;23.14;68.30
32131;BME280;18639;50.716;7.086;2023-07-08T07:10:41;100438.41;;;23.21;71.85
32131;BME280;18639;50.716;7.086;2023-07-08T07:13:07;100436.47;;;23.15;68.55
32131;BME280;18639;50.716;7.086;2023-07-08T07:15:32;100423.66;;;23.12;62.23
32131;BME280;18639;50.716;7.086;2023-07-08T07:17:57;100449.41;;;23.24;59.20
32131;BME280;18639;50.716;7.086;2023-07-08T07:20:25;100436.97;;;23.18;58.29
32131;BME280;18639;50.716;7.086;2023-07-08T07:22:51;100442.88;;;23.35;60.36
32131;BME280;18639;50.716;7.086;2023-07-08T07:25:17;100414.97;;;23.40;59.86
32131;BME280;18639;50.716;7.086;2023-07-08T07:27:42;100414.59;;;23.66;57.63
32131;BME280;18639;50.716;7.086;2023-07-08T07:30:08;100427.38;;;23.99;55.76
32131;BME280;18639;50.716;7.086;2023-07-08T07:32:37;100430.47;;;24.31;52.50
32131;BME280;18639;50.716;7.086;2023-07-08T07:35:03;100429.06;;;24.50;50.15
32131;BME280;18639;50.716;7.086;2023-07-08T07:37:28;100431.53;;;24.73;51.78
32131;BME280;18639;50.716;7.086;2023-07-08T07:39:54;100437.75;;;24.87;50.86
32131;BME280;18639;50.716;7.086;2023-07-08T07:42:19;100438.94;;;24.99;49.03
32131;BME280;18639;50.716;7.086;2023-07-08T07:44:45;100422.66;;;25.02;52.78
32131;BME280;18639;50.716;7.086;2023-07-08T07:47:11;100432.59;;;25.21;53.39
32131;BME280;18639;50.716;7.086;2023-07-08T07:49:37;100433.50;;;25.35;49.69
32131;BME280;18639;50.716;7.086;2023-07-08T07:52:03;100454.47;;;25.58;50.83
32131;BME280;18639;50.716;7.086;2023-07-08T07:54:28;100440.72;;;25.69;48.18
32131;BME280;18639;50.716;7.086;2023-07-08T07:56:54;100444.81;;;25.78;47.93
32131;BME280;18639;50.716;7.086;2023-07-08T07:59:19;100432.81;;;25.82;49.23
32131;BME280;18639;50.716;7.086;2023-07-08T08:01:45;100456.56;;;26.03;46.58
32131;BME280;18639;50.716;7.086;2023-07-08T08:04:11;100453.38;;;26.21;45.96
32131;BME280;18639;50.716;7.086;2023-07-08T08:06:36;100453.00;;;26.24;46.24
32131;BME280;18639;50.716;7.086;2023-07-08T08:09:05;100435.28;;;26.24;46.65
32131;BME280;18639;50.716;7.086;2023-07-08T08:11:32;100443.50;;;26.43;46.69
32131;BME280;18639;50.716;7.086;2023-07-08T08:13:57;100437.41;;;26.49;46.47
32131;BME280;18639;50.716;7.086;2023-07-08T08:16:23;100433.75;;;26.50;46.64
32131;BME280;18639;50.716;7.086;2023-07-08T08:18:48;100422.53;;;26.54;47.82
32131;BME280;18639;50.716;7.086;2023-07-08T08:21:14;100405.16;;;26.45;48.30
32131;BME280;18639;50.716;7.086;2023-07-08T08:23:40;100439.91;;;26.83;46.94
32131;BME280;18639;50.716;7.086;2023-07-08T08:26:05;100430.16;;;26.90;45.24
32131;BME280;18639;50.716;7.086;2023-07-08T08:28:30;100424.25;;;26.95;45.33
32131;BME280;18639;50.716;7.086;2023-07-08T08:30:55;100439.56;;;27.06;48.27
32131;BME280;18639;50.716;7.086;2023-07-08T08:33:21;100418.75;;;27.16;44.61
32131;BME280;18639;50.716;7.086;2023-07-08T08:35:46;100439.56;;;27.39;45.13
32131;BME280;18639;50.716;7.086;2023-07-08T08:38:11;100426.91;;;27.54;43.48
32131;BME280;18639;50.716;7.086;2023-07-08T08:40:39;100446.88;;;27.70;44.96
32131;BME280;18639;50.716;7.086;2023-07-08T08:43:31;100421.13;;;27.77;42.07
32131;BME280;18639;50.716;7.086;2023-07-08T08:46:06;100448.06;;;27.87;44.11
32131;BME280;18639;50.716;7.086;2023-07-08T08:48:42;100426.81;;;27.87;44.59
32131;BME280;18639;50.716;7.086;2023-07-08T08:51:13;100417.63;;;27.83;45.08
32131;BME280;18639;50.716;7.086;2023-07-08T08:53:40;100446.75;;;28.16;41.75
32131;BME280;18639;50.716;7.086;2023-07-08T08:56:24;100458.81;;;28.18;42.72
32131;BME280;18639;50.716;7.086;2023-07-08T09:01:57;100441.75;;;28.39;42.49
32131;BME280;18639;50.716;7.086;2023-07-08T09:04:28;100446.59;;;28.48;44.61
32131;BME280;18639;50.716;7.086;2023-07-08T09:07:08;100450.38;;;28.72;40.47
32131;BME280;18639;50.716;7.086;2023-07-08T09:09:42;100436.91;;;28.61;41.88
32131;BME280;18639;50.716;7.086;2023-07-08T09:12:15;100445.66;;;28.74;43.79
32131;BME280;18639;50.716;7.086;2023-07-08T09:14:42;100443.28;;;28.91;42.85
32131;BME280;18639;50.716;7.086;2023-07-08T09:17:27;100440.09;;;29.07;42.78
32131;BME280;18639;50.716;7.086;2023-07-08T09:22:31;100440.72;;;29.34;41.61
32131;BME280;18639;50.716;7.086;2023-07-08T09:25:34;100386.13;;;29.00;40.79
32131;BME280;18639;50.716;7.086;2023-07-08T09:28:01;100437.06;;;29.53;41.79
32131;BME280;18639;50.716;7.086;2023-07-08T09:30:27;100398.25;;;29.39;39.58
32131;BME280;18639;50.716;7.086;2023-07-08T09:32:55;100417.06;;;29.62;38.58
32131;BME280;18639;50.716;7.086;2023-07-08T09:35:26;100422.47;;;29.74;40.56
32131;BME280;18639;50.716;7.086;2023-07-08T09:37:52;100428.47;;;29.88;42.09
32131;BME280;18639;50.716;7.086;2023-07-08T09:42:51;100429.88;;;30.57;39.44
32131;BME280;18639;50.716;7.086;2023-07-08T09:45:23;100425.56;;;30.97;39.26
32131;BME280;18639;50.716;7.086;2023-07-08T09:47:54;100419.22;;;31.21;37.82
32131;BME280;18639;50.716;7.086;2023-07-08T09:50:24;100434.31;;;31.51;37.24
32131;BME280;18639;50.716;7.086;2023-07-08T09:52:57;100395.72;;;31.70;38.77
32131;BME280;18639;50.716;7.086;2023-07-08T09:55:25;100416.41;;;32.26;39.35
32131;BME280;18639;50.716;7.086;2023-07-08T09:57:52;100400.88;;;32.56;35.32
32131;BME280;18639;50.716;7.086;2023-07-08T10:00:26;100411.00;;;32.99;34.97
32131;BME280;18639;50.716;7.086;2023-07-08T10:02:55;100414.28;;;33.40;35.02
32131;BME280;18639;50.716;7.086;2023-07-08T10:07:57;100380.44;;;33.72;34.88
32131;BME280;18639;50.716;7.086;2023-07-08T10:10:32;100396.56;;;34.21;33.93
32131;BME280;18639;50.716;7.086;2023-07-08T10:13:02;100401.47;;;34.56;32.58
32131;BME280;18639;50.716;7.086;2023-07-08T10:15:39;100408.47;;;34.62;32.01
32131;BME280;18639;50.716;7.086;2023-07-08T10:18:16;100354.59;;;34.69;33.34
32131;BME280;18639;50.716;7.086;2023-07-08T10:21:07;100403.53;;;35.13;33.43
32131;BME280;18639;50.716;7.086;2023-07-08T10:23:51;100397.69;;;35.21;31.00
32131;BME280;18639;50.716;7.086;2023-07-08T10:26:28;100404.50;;;35.38;31.64
32131;BME280;18639;50.716;7.086;2023-07-08T10:31:59;100402.69;;;35.07;30.51
32131;BME280;18639;50.716;7.086;2023-07-08T10:34:49;100395.97;;;35.04;31.35
32131;BME280;18639;50.716;7.086;2023-07-08T10:43:18;100407.25;;;35.48;32.64
32131;BME280;18639;50.716;7.086;2023-07-08T10:51:20;100396.44;;;34.96;32.76
32131;BME280;18639;50.716;7.086;2023-07-08T10:54:25;100409.34;;;34.41;31.16
32131;BME280;18639;50.716;7.086;2023-07-08T10:57:10;100399.28;;;34.04;32.38
32131;BME280;18639;50.716;7.086;2023-07-08T11:00:14;100386.75;;;33.45;32.19
32131;BME280;18639;50.716;7.086;2023-07-08T11:03:14;100397.75;;;32.93;32.72
32131;BME280;18639;50.716;7.086;2023-07-08T11:05:45;100385.34;;;32.70;35.16
32131;BME280;18639;50.716;7.086;2023-07-08T11:08:35;100397.38;;;32.39;35.08
32131;BME280;18639;50.716;7.086;2023-07-08T11:11:09;100390.44;;;31.98;35.31
32131;BME280;18639;50.716;7.086;2023-07-08T11:13:52;100393.31;;;31.57;34.61
32131;BME280;18639;50.716;7.086;2023-07-08T11:16:39;100396.91;;;31.39;35.22
32131;BME280;18639;50.716;7.086;2023-07-08T11:19:11;100393.66;;;31.25;35.27
32131;BME280;18639;50.716;7.086;2023-07-08T11:21:43;100388.69;;;31.17;36.36
32131;BME280;18639;50.716;7.086;2023-07-08T11:24:22;100386.38;;;31.09;37.40
32131;BME280;18639;50.716;7.086;2023-07-08T11:26:53;100395.53;;;31.13;36.61
32131;BME280;18639;50.716;7.086;2023-07-08T11:29:24;100385.03;;;31.00;36.92
32131;BME280;18639;50.716;7.086;2023-07-08T11:31:51;100387.94;;;30.99;37.17
32131;BME280;18639;50.716;7.086;2023-07-08T11:34:19;100366.91;;;30.79;36.35
32131;BME280;18639;50.716;7.086;2023-07-08T11:36:46;100390.94;;;30.79;36.56
32131;BME280;18639;50.716;7.086;2023-07-08T11:41:53;100391.75;;;30.79;36.88
32131;BME280;18639;50.716;7.086;2023-07-08T11:44:28;100381.19;;;30.73;37.44
32131;BME280;18639;50.716;7.086;2023-07-08T11:46:55;100382.13;;;30.78;38.50
32131;BME280;18639;50.716;7.086;2023-07-08T11:49:20;100372.00;;;30.69;36.18
32131;BME280;18639;50.716;7.086;2023-07-08T11:51:46;100376.31;;;30.70;37.46
32131;BME280;18639;50.716;7.086;2023-07-08T11:54:30;100369.81;;;30.66;37.44
32131;BME280;18639;50.716;7.086;2023-07-08T11:57:06;100380.03;;;30.69;37.51
32131;BME280;18639;50.716;7.086;2023-07-08T11:59:33;100388.28;;;30.79;37.61
32131;BME280;18639;50.716;7.086;2023-07-08T12:02:17;100382.25;;;30.72;36.30
32131;BME280;18639;50.716;7.086;2023-07-08T12:04:57;100374.59;;;30.75;37.11
32131;BME280;18639;50.716;7.086;2023-07-08T12:10:13;100374.69;;;30.69;36.58
32131;BME280;18639;50.716;7.086;2023-07-08T12:12:42;100369.94;;;30.71;37.06
32131;BME280;18639;50.716;7.086;2023-07-08T12:15:25;100339.16;;;30.57;36.63
32131;BME280;18639;50.716;7.086;2023-07-08T12:17:53;100332.22;;;30.56;36.74
32131;BME280;18639;50.716;7.086;2023-07-08T12:20:25;100365.28;;;30.78;37.21
32131;BME280;18639;50.716;7.086;2023-07-08T12:22:52;100368.19;;;30.88;35.57
32131;BME280;18639;50.716;7.086;2023-07-08T12:25:20;100365.31;;;30.89;37.10
32131;BME280;18639;50.716;7.086;2023-07-08T12:27:46;100365.41;;;30.94;36.98
32131;BME280;18639;50.716;7.086;2023-07-08T12:30:13;100364.50;;;30.89;37.57
32131;BME280;18639;50.716;7.086;2023-07-08T12:32:40;100330.16;;;30.81;35.42
32131;BME280;18639;50.716;7.086;2023-07-08T12:35:17;100366.25;;;30.95;36.58
32131;BME280;18639;50.716;7.086;2023-07-08T12:37:45;100342.56;;;30.87;36.53
32131;BME280;18639;50.716;7.086;2023-07-08T12:40:11;100354.44;;;31.03;35.67
32131;BME280;18639;50.716;7.086;2023-07-08T12:42:36;100355.34;;;30.97;37.16
32131;BME280;18639;50.716;7.086;2023-07-08T12:45:02;100313.41;;;30.74;35.88
32131;BME280;18639;50.716;7.086;2023-07-08T12:47:27;100341.16;;;30.84;35.76
32131;BME280;18639;50.716;7.086;2023-07-08T12:49:53;100333.84;;;30.80;36.56
32131;BME280;18639;50.716;7.086;2023-07-08T12:52:22;100350.34;;;30.77;36.20
32131;BME280;18639;50.716;7.086;2023-07-08T12:54:48;100353.56;;;30.79;36.10
32131;BME280;18639;50.716;7.086;2023-07-08T12:57:15;100320.72;;;30.67;36.31
32131;BME280;18639;50.716;7.086;2023-07-08T12:59:43;100315.72;;;30.59;36.49
32131;BME280;18639;50.716;7.086;2023-07-08T13:02:15;100336.16;;;30.88;36.31
32131;BME280;18639;50.716;7.086;2023-07-08T13:04:43;100347.09;;;30.98;36.37
32131;BME280;18639;50.716;7.086;2023-07-08T13:07:23;100315.75;;;30.82;36.56
32131;BME280;18639;50.716;7.086;2023-07-08T13:09:49;100310.97;;;30.72;37.20
32131;BME280;18639;50.716;7.086;2023-07-08T13:12:18;100338.28;;;30.86;37.34
32131;BME280;18639;50.716;7.086;2023-07-08T13:14:47;100319.47;;;30.81;36.98
32131;BME280;18639;50.716;7.086;2023-07-08T13:17:14;100272.91;;;30.53;37.30
32131;BME280;18639;50.716;7.086;2023-07-08T13:19:41;100305.41;;;30.74;38.96
32131;BME280;18639;50.716;7.086;2023-07-08T13:22:19;100328.56;;;31.03;37.26
32131;BME280;18639;50.716;7.086;2023-07-08T13:24:46;100279.91;;;30.66;36.80
32131;BME280;18639;50.716;7.086;2023-07-08T13:27:23;100318.78;;;30.97;36.94
32131;BME280;18639;50.716;7.086;2023-07-08T13:29:56;100317.13;;;30.96;37.07